createdAt,value
2023-01-03T00:00:50.499Z,116943.30
2023-01-03T00:01:53.582Z,116943.30
2023-01-03T00:02:56.305Z,116943.30
2023-01-03T00:03:59.337Z,116943.30
2023-01-03T00:05:02.313Z,116943.30
2023-01-03T00:06:04.941Z,116943.30
2023-01-03T00:07:07.468Z,116943.30
2023-01-03T00:08:10.443Z,116943.30
2023-01-03T00:09:13.116Z,116943.30
2023-01-03T00:10:15.785Z,116943.30
2023-01-03T00:11:18.262Z,116943.30
2023-01-03T00:12:22.507Z,116943.30
2023-01-03T00:13:25.034Z,116943.30
2023-01-03T00:14:27.717Z,116943.30
2023-01-03T00:15:30.491Z,116943.30
2023-01-03T00:16:33.335Z,116943.30
2023-01-03T00:17:36.245Z,116943.30
2023-01-03T00:18:38.787Z,116943.30
2023-01-03T00:19:41.661Z,116943.30
2023-01-03T00:20:44.342Z,116943.30
2023-01-03T00:21:47.009Z,116943.30
2023-01-03T00:22:49.673Z,116943.30
2023-01-03T00:23:52.245Z,116943.30
2023-01-03T00:24:54.802Z,116943.30
2023-01-03T00:25:57.780Z,116943.30
2023-01-03T00:27:00.380Z,116943.30
2023-01-03T12:29:45.536Z,78075.75
2023-01-03T12:30:48.209Z,103106.45
2023-01-03T12:31:50.838Z,104791.10
2023-01-03T12:32:53.832Z,105277.34
2023-01-03T12:33:57.007Z,105130.16
2023-01-03T12:35:00.181Z,105080.41
2023-01-03T12:36:03.261Z,105036.76
2023-01-03T12:37:06.358Z,104418.59
2023-01-03T12:38:09.441Z,104091.78
2023-01-03T12:39:12.443Z,103730.50
2023-01-03T12:40:15.985Z,103232.27
2023-01-03T12:41:19.609Z,103108.48
2023-01-03T12:42:22.747Z,102999.91
2023-01-03T12:43:25.937Z,102601.19
2023-01-03T12:44:29.136Z,102132.51
2023-01-03T12:45:34.679Z,101459.00
2023-01-03T12:46:37.173Z,101334.25
2023-01-03T12:47:40.220Z,101411.33
2023-01-03T12:48:43.298Z,100840.37
2023-01-03T12:49:46.261Z,100247.17
2023-01-03T12:50:49.248Z,100106.25
2023-01-03T12:51:52.548Z,100022.09
2023-01-03T12:52:55.701Z,99835.55
2023-01-03T12:53:58.792Z,99036.73
2023-01-03T12:55:01.875Z,98479.27
2023-01-03T12:56:04.844Z,98245.16
2023-01-03T12:57:07.618Z,97895.55
2023-01-03T12:58:11.003Z,97178.17
2023-01-03T12:59:13.976Z,96718.22
2023-01-03T13:00:17.197Z,96153.99
2023-01-03T13:01:20.382Z,95124.00
2023-01-03T13:02:23.679Z,94305.87
2023-01-03T13:03:27.237Z,93479.80
2023-01-03T13:04:30.504Z,93023.31
2023-01-03T13:05:33.484Z,92535.50
2023-01-03T13:06:36.666Z,92505.14
2023-01-03T13:07:39.459Z,92395.84
2023-01-03T13:08:42.433Z,92483.88
2023-01-03T13:09:45.794Z,92546.63
2023-01-03T13:10:49.214Z,92633.66
2023-01-03T13:11:52.502Z,92371.56
2023-01-03T13:12:55.782Z,92217.74
2023-01-03T13:13:59.157Z,91750.27
2023-01-03T13:15:02.431Z,90053.83
2023-01-03T13:16:06.061Z,89127.52
2023-01-03T13:17:09.008Z,88502.69
2023-01-03T13:18:12.280Z,88219.61
2023-01-03T13:19:15.464Z,87981.05
2023-01-03T13:20:18.856Z,87661.63
2023-01-03T13:21:21.946Z,87434.21
2023-01-03T13:22:25.215Z,86977.39
2023-01-03T13:23:28.385Z,87488.80
2023-01-03T13:24:31.885Z,88675.56
2023-01-03T13:25:34.979Z,90070.02
2023-01-03T13:26:37.773Z,91203.93
2023-01-03T13:27:40.689Z,92134.77
2023-01-03T13:28:43.784Z,93060.76
2023-01-03T13:29:46.683Z,93854.34
2023-01-03T13:30:49.808Z,94515.45
2023-01-03T13:31:53.062Z,95253.63
2023-01-03T13:32:56.316Z,95956.48
2023-01-03T13:33:59.296Z,96487.25
2023-01-03T13:35:02.792Z,96468.01
2023-01-03T13:36:06.058Z,96586.53
2023-01-03T13:37:09.458Z,96593.62
2023-01-03T13:38:12.635Z,96318.09
2023-01-03T13:39:16.276Z,96069.92
2023-01-03T13:40:19.192Z,95150.33
2023-01-03T13:41:21.861Z,94504.31
2023-01-03T13:42:24.854Z,94035.55
2023-01-03T13:43:27.831Z,93460.56
2023-01-03T13:44:30.714Z,92973.72
2023-01-03T13:45:33.571Z,92709.56
2023-01-03T13:46:36.666Z,92478.83
2023-01-03T13:47:39.444Z,92316.91
2023-01-03T13:48:42.448Z,92507.16
2023-01-03T13:49:50.303Z,92777.38
2023-01-03T13:50:49.766Z,93039.50
2023-01-03T13:51:53.079Z,93270.27
2023-01-03T13:52:56.158Z,93229.79
2023-01-03T13:53:59.257Z,93294.56
2023-01-03T13:55:02.207Z,92680.22
2023-01-03T13:56:05.284Z,92127.69
2023-01-03T13:57:07.954Z,91644.03
2023-01-03T13:58:10.936Z,91045.10
2023-01-03T13:59:13.938Z,90190.38
2023-01-03T14:00:16.884Z,89577.50
2023-01-03T14:01:19.744Z,88887.88
2023-01-03T14:02:22.933Z,88469.32
2023-01-03T14:03:26.321Z,88090.22
2023-01-03T14:04:29.340Z,87729.35
2023-01-03T14:05:32.390Z,87321.02
2023-01-03T14:06:35.477Z,86752.03
2023-01-03T14:07:38.196Z,86255.89
2023-01-03T14:08:41.385Z,86081.09
2023-01-03T14:09:44.517Z,85530.47
2023-01-03T14:10:47.274Z,84920.33
2023-01-03T14:11:50.630Z,84266.86
2023-01-03T14:12:53.531Z,83235.86
2023-01-03T14:13:56.722Z,83205.57
2023-01-03T14:14:59.993Z,83640.75
2023-01-03T14:16:02.949Z,83550.89
2023-01-03T14:17:06.273Z,83618.54
2023-01-03T14:18:09.163Z,83611.47
2023-01-03T14:19:12.316Z,83736.69
2023-01-03T14:20:16.035Z,84094.16
2023-01-03T14:21:25.220Z,84262.81
2023-01-03T14:22:31.659Z,83909.36
2023-01-03T14:24:32.831Z,83088.45
2023-01-03T14:25:36.318Z,81953.80
2023-01-03T14:26:39.413Z,80573.25
2023-01-03T14:27:42.591Z,79620.88
2023-01-03T14:28:45.794Z,78546.69
2023-01-03T14:29:49.993Z,77287.29
2023-01-03T14:30:55.508Z,76237.92
2023-01-03T14:31:58.523Z,75594.94
2023-01-03T14:33:01.352Z,75173.72
2023-01-03T14:34:04.233Z,74581.27
2023-01-03T14:35:07.108Z,74080.58
2023-01-03T14:36:09.984Z,73810.62
2023-01-03T14:37:13.374Z,73635.35
2023-01-03T14:38:17.075Z,73719.97
2023-01-03T14:39:20.354Z,73933.52
2023-01-03T14:40:23.552Z,74248.81
2023-01-03T14:41:27.262Z,74688.06
2023-01-03T14:42:31.338Z,75286.58
2023-01-03T14:43:34.626Z,75931.53
2023-01-03T14:44:37.910Z,76683.44
2023-01-03T14:45:41.097Z,77188.48
2023-01-03T14:46:44.618Z,77782.33
2023-01-03T14:47:47.883Z,78599.13
2023-01-03T14:48:51.040Z,79691.48
2023-01-03T14:49:54.222Z,80537.94
2023-01-03T14:50:57.407Z,81417.87
2023-01-03T14:52:00.835Z,82254.59
2023-01-03T14:53:04.281Z,82948.12
2023-01-03T14:54:07.977Z,83416.59
2023-01-03T14:55:11.277Z,84161.83
2023-01-03T14:56:14.436Z,84651.66
2023-01-03T14:57:17.735Z,85073.87
2023-01-03T14:58:20.834Z,85798.19
2023-01-03T14:59:24.301Z,86744.96
2023-01-03T15:00:32.629Z,87425.11
2023-01-03T15:01:32.700Z,87835.48
2023-01-03T15:02:36.441Z,88432.92
2023-01-03T15:03:39.360Z,88962.70
2023-01-03T15:04:42.578Z,90573.71
2023-01-03T15:05:45.251Z,92248.10
2023-01-03T15:06:48.104Z,93672.13
2023-01-03T15:07:51.397Z,94585.31
2023-01-03T15:08:54.490Z,95258.69
2023-01-03T15:09:57.488Z,95705.30
2023-01-03T15:10:59.980Z,96067.90
2023-01-03T15:12:03.603Z,96422.42
2023-01-03T15:13:06.478Z,96574.38
2023-01-03T15:14:09.444Z,97055.58
2023-01-03T15:15:12.338Z,97277.45
2023-01-03T15:16:15.319Z,97534.81
2023-01-03T15:17:18.188Z,97702.00
2023-01-03T15:18:21.626Z,98070.86
2023-01-03T15:19:24.535Z,98455.97
2023-01-03T15:20:27.560Z,99123.91
2023-01-03T15:21:30.508Z,100256.30
2023-01-03T15:22:33.529Z,101119.25
2023-01-03T15:23:36.880Z,101893.12
2023-01-03T15:24:43.318Z,102781.78
2023-01-03T15:25:44.459Z,103480.87
2023-01-03T15:26:47.332Z,104419.61
2023-01-03T15:27:50.293Z,104924.08
2023-01-03T15:28:53.166Z,105359.58
2023-01-03T15:29:56.268Z,105688.52
2023-01-03T15:30:59.121Z,106032.72
2023-01-03T15:32:02.307Z,106244.94
2023-01-03T15:33:05.142Z,106287.58
2023-01-03T15:34:08.355Z,106285.55
2023-01-03T15:35:11.445Z,106130.20
2023-01-03T15:36:18.773Z,105988.04
2023-01-03T15:37:19.268Z,105903.77
2023-01-03T15:38:22.234Z,105966.72
2023-01-03T15:39:25.204Z,105922.05
2023-01-03T15:40:27.973Z,105782.94
2023-01-03T15:41:31.371Z,105652.98
2023-01-03T15:42:44.487Z,105291.56
2023-01-03T15:43:38.941Z,105103.75
2023-01-03T15:44:41.936Z,105165.68
2023-01-03T15:45:44.897Z,104998.19
2023-01-03T15:46:47.567Z,104949.45
2023-01-03T15:47:50.477Z,105022.55
2023-01-03T15:48:53.747Z,104895.66
2023-01-03T15:49:57.325Z,104991.08
2023-01-03T15:51:00.498Z,105001.23
2023-01-03T15:52:04.091Z,105315.92
2023-01-03T15:53:06.780Z,105311.87
2023-01-03T15:54:09.634Z,105042.84
2023-01-03T15:55:12.637Z,104377.99
2023-01-03T15:56:15.688Z,103461.59
2023-01-03T15:57:18.977Z,103170.38
2023-01-03T15:58:22.265Z,103149.06
2023-01-03T15:59:25.376Z,102689.45
2023-01-03T16:00:29.039Z,102325.25
2023-01-03T16:01:32.704Z,101951.95
2023-01-03T16:02:36.189Z,101068.55
2023-01-03T16:03:39.192Z,100529.06
2023-01-03T16:04:42.061Z,100007.90
2023-01-03T16:05:45.250Z,99258.72
2023-01-03T16:06:48.364Z,99396.58
2023-01-03T16:07:51.331Z,99515.19
2023-01-03T16:08:54.903Z,99397.59
2023-01-03T16:09:58.273Z,99197.90
2023-01-03T16:11:01.299Z,99356.03
2023-01-03T16:12:04.436Z,99438.14
2023-01-03T16:13:07.636Z,99453.35
2023-01-03T16:14:10.503Z,99994.72
2023-01-03T16:15:13.474Z,100682.17
2023-01-03T16:16:16.401Z,100872.82
2023-01-03T16:17:24.318Z,100945.84
2023-01-03T16:18:23.752Z,100841.38
2023-01-03T16:19:26.836Z,101131.42
2023-01-03T16:20:29.543Z,101119.25
2023-01-03T16:21:35.847Z,101097.95
2023-01-03T16:22:44.821Z,100906.28
2023-01-03T16:23:43.362Z,101517.83
2023-01-03T16:24:46.116Z,101625.34
2023-01-03T16:25:49.494Z,101696.34
2023-01-03T16:26:52.813Z,102487.56
2023-01-03T16:27:56.216Z,102810.19
2023-01-03T16:28:59.562Z,102850.77
2023-01-03T16:30:02.444Z,102720.91
2023-01-03T16:31:05.544Z,102603.22
2023-01-03T16:32:08.863Z,102586.98
2023-01-03T16:33:11.973Z,102616.41
2023-01-03T16:34:15.054Z,102785.83
2023-01-03T16:35:17.668Z,102859.90
2023-01-03T16:36:20.493Z,102863.95
2023-01-03T16:37:24.016Z,102850.77
2023-01-03T16:38:27.187Z,102980.63
2023-01-03T16:39:29.952Z,103266.77
2023-01-03T16:40:33.136Z,103306.34
2023-01-03T16:41:36.225Z,103271.84
2023-01-03T16:42:39.916Z,103319.53
2023-01-03T16:43:43.291Z,103284.02
2023-01-03T16:44:46.153Z,103099.34
2023-01-03T16:45:49.126Z,102762.50
2023-01-03T16:46:51.910Z,102261.34
2023-01-03T16:47:55.410Z,102261.34
2023-01-03T16:48:58.072Z,102054.41
2023-01-03T16:50:01.143Z,102352.64
2023-01-03T16:51:04.453Z,102695.54
2023-01-03T16:52:07.510Z,102924.83
2023-01-03T16:53:10.992Z,103066.87
2023-01-03T16:54:14.347Z,102834.53
2023-01-03T16:55:17.567Z,102984.69
2023-01-03T16:56:20.460Z,103202.84
2023-01-03T16:57:23.347Z,103172.41
2023-01-03T16:58:27.014Z,102799.02
2023-01-03T16:59:29.993Z,102880.19
2023-01-03T17:00:33.182Z,103433.17
2023-01-03T17:01:36.509Z,103709.19
2023-01-03T17:02:40.163Z,103993.34
2023-01-03T17:03:43.576Z,104245.03
2023-01-03T17:04:46.400Z,104431.79
2023-01-03T17:05:49.412Z,104275.48
2023-01-03T17:06:52.355Z,104161.81
2023-01-03T17:07:55.233Z,103950.72
2023-01-03T17:08:58.124Z,103559.00
2023-01-03T17:10:01.195Z,103233.28
2023-01-03T17:11:04.270Z,102919.76
2023-01-03T17:12:07.064Z,102513.94
2023-01-03T17:13:13.086Z,102080.77
2023-01-03T17:14:14.845Z,101710.54
2023-01-03T17:15:18.120Z,101437.70
2023-01-03T17:16:21.130Z,100889.05
2023-01-03T17:17:24.302Z,100557.45
2023-01-03T17:18:27.053Z,100263.40
2023-01-03T17:20:34.954Z,99927.80
2023-01-03T17:21:37.976Z,99848.72
2023-01-03T17:22:41.437Z,99423.95
2023-01-03T17:23:44.477Z,99044.84
2023-01-03T17:24:47.676Z,99031.66
2023-01-03T17:25:50.873Z,99197.90
2023-01-03T17:26:54.034Z,99445.23
2023-01-03T17:27:57.077Z,100215.75
2023-01-03T17:28:59.889Z,101311.94
2023-01-03T17:30:03.013Z,102639.73
2023-01-03T17:31:05.683Z,103828.94
2023-01-03T17:32:08.589Z,104912.91
2023-01-03T17:33:11.598Z,105729.13
2023-01-03T17:34:14.677Z,106474.42
2023-01-03T17:35:17.473Z,107039.08
2023-01-03T17:36:20.119Z,107534.73
2023-01-03T17:37:22.977Z,107738.91
2023-01-03T17:38:27.036Z,107872.99
2023-01-03T17:39:30.187Z,107897.37
2023-01-03T17:40:34.477Z,108219.41
2023-01-03T17:41:38.068Z,108420.56
2023-01-03T17:42:41.148Z,109021.05
2023-01-03T17:43:44.225Z,109242.56
2023-01-03T17:44:47.121Z,109441.73
2023-01-03T17:45:50.228Z,109605.36
2023-01-03T17:46:53.170Z,109580.97
2023-01-03T17:47:55.973Z,109797.44
2023-01-03T17:50:15.074Z,110154.17
2023-01-03T17:51:18.238Z,112887.19
2023-01-03T17:52:21.258Z,113215.71
2023-01-03T17:53:24.435Z,113735.52
2023-01-03T17:54:27.531Z,114048.86
2023-01-03T17:55:30.305Z,114310.33
2023-01-03T17:56:33.377Z,114549.44
2023-01-03T17:57:36.098Z,114715.29
2023-01-03T17:58:39.021Z,114741.75
2023-01-03T17:59:42.212Z,114867.92
2023-01-03T18:02:01.884Z,115096.89
2023-01-03T18:03:05.509Z,115769.59
2023-01-03T18:04:09.155Z,115509.05
2023-01-03T18:05:17.585Z,115639.32
2023-01-03T18:06:16.972Z,115639.32
2023-01-03T18:07:20.149Z,115639.32
2023-01-03T18:08:23.120Z,115639.32
2023-01-03T18:09:26.089Z,115639.32
2023-01-03T18:10:29.066Z,115509.05
2023-01-03T18:11:32.474Z,115509.05
2023-01-03T18:12:35.852Z,115509.05
2023-01-03T18:13:39.444Z,115509.05
2023-01-03T18:14:48.453Z,115509.05
2023-01-03T18:15:51.553Z,115509.05
2023-01-03T18:16:55.444Z,115769.59
2023-01-03T18:17:59.039Z,115639.32
2023-01-03T18:19:02.009Z,115509.05
2023-01-03T18:20:04.992Z,115378.78
2023-01-03T18:22:24.371Z,114988.00
2023-01-03T18:23:27.739Z,115509.05
2023-01-03T18:24:31.076Z,115118.26
2023-01-03T18:25:34.171Z,114845.54
2023-01-03T18:26:37.987Z,114714.27
2023-01-03T18:27:40.910Z,114676.63
2023-01-03T18:28:43.842Z,114760.06
2023-01-03T18:29:47.124Z,114768.20
2023-01-03T18:30:50.165Z,114814.00
2023-01-03T18:33:09.330Z,114988.00
2023-01-03T18:34:12.554Z,115639.32
2023-01-03T18:35:19.275Z,115378.78
2023-01-03T18:36:20.267Z,115378.78
2023-01-03T18:37:23.336Z,115378.78
2023-01-03T18:38:26.520Z,115378.78
2023-01-03T18:39:30.012Z,115248.52
2023-01-03T18:40:33.557Z,115248.52
2023-01-03T18:41:36.776Z,115378.78
2023-01-03T18:43:55.538Z,115378.78
2023-01-03T18:44:58.939Z,115769.59
2023-01-03T18:46:01.896Z,115509.05
2023-01-03T18:47:04.997Z,115248.52
2023-01-03T18:48:07.879Z,115118.26
2023-01-03T18:49:11.232Z,115118.26
2023-01-03T18:50:14.275Z,114983.93
2023-01-03T18:52:33.516Z,114475.16
2023-01-03T18:53:36.597Z,114988.00
2023-01-03T18:54:39.754Z,114375.45
2023-01-03T18:55:43.549Z,113801.64
2023-01-03T18:56:46.496Z,113535.11
2023-01-03T18:57:50.328Z,113204.52
2023-01-03T18:58:57.999Z,112799.71
2023-01-03T18:59:57.524Z,112433.59
2023-01-03T19:01:00.893Z,112060.38
2023-01-03T19:02:03.649Z,110958.23
2023-01-03T19:03:06.877Z,109192.77
2023-01-03T19:05:26.033Z,107360.03
2023-01-03T19:06:29.293Z,108067.02
2023-01-03T19:07:32.059Z,106286.56
2023-01-03T19:08:35.090Z,105083.45
2023-01-03T19:09:38.289Z,103187.62
2023-01-03T19:10:41.491Z,101832.26
2023-01-03T19:11:44.675Z,100538.19
2023-01-03T19:12:47.554Z,98513.73
2023-01-03T19:13:51.033Z,97108.27
2023-01-03T19:14:54.532Z,95455.16
2023-01-03T19:15:57.614Z,93623.54
2023-01-03T19:17:00.595Z,91679.44
2023-01-03T19:18:03.254Z,89397.50
2023-01-03T19:19:06.233Z,87643.44
2023-01-03T19:20:09.108Z,86296.30
2023-01-03T19:21:11.877Z,84757.71
2023-01-03T19:22:15.197Z,83291.39
2023-01-03T19:23:18.453Z,81771.11
2023-01-03T19:24:21.864Z,80080.89
2023-01-03T19:25:24.807Z,78085.84
2023-01-03T19:26:27.892Z,76560.47
2023-01-03T19:27:30.873Z,74908.72
2023-01-03T19:28:33.537Z,73347.29
2023-01-03T19:29:36.205Z,72082.48
2023-01-03T19:30:38.985Z,71057.63
2023-01-03T19:31:41.982Z,70151.79
2023-01-03T19:32:45.653Z,69323.63
2023-01-03T19:33:48.663Z,68364.88
2023-01-03T19:34:51.603Z,67394.28
2023-01-03T19:35:54.393Z,66429.95
2023-01-03T19:36:57.134Z,65510.09
2023-01-03T19:38:00.352Z,64782.38
2023-01-03T19:39:03.320Z,64195.50
2023-01-03T19:40:06.008Z,63654.91
2023-01-03T19:41:08.746Z,63070.20
2023-01-03T19:42:11.850Z,62646.29
2023-01-03T19:43:14.877Z,62287.71
2023-01-03T19:44:18.006Z,61816.68
2023-01-03T19:45:20.973Z,61347.71
2023-01-03T19:46:23.888Z,60717.16
2023-01-03T19:47:26.836Z,60254.34
2023-01-03T19:48:30.000Z,59486.45
2023-01-03T19:50:49.208Z,57796.61
2023-01-03T19:51:52.247Z,57452.51
2023-01-03T19:54:11.197Z,55376.50
2023-01-03T19:55:13.897Z,54744.89
2023-01-03T19:56:16.781Z,53044.04
2023-01-03T19:58:35.807Z,51262.80
2023-01-03T20:00:54.571Z,50181.21
2023-01-03T20:02:24.050Z,49754.67
2023-01-03T20:03:02.156Z,48802.63
2023-01-03T20:04:05.471Z,47966.90
2023-01-03T20:05:09.170Z,47370.49
2023-01-03T20:06:12.130Z,46881.22
2023-01-03T20:07:14.805Z,46028.89
2023-01-03T20:08:17.557Z,45797.84
2023-01-03T20:09:20.457Z,45364.77
2023-01-03T20:10:23.208Z,45115.75
2023-01-03T20:11:26.279Z,44966.75
2023-01-03T20:12:29.193Z,44750.75
2023-01-03T20:13:31.939Z,44621.76
2023-01-03T20:14:34.599Z,44401.79
2023-01-03T20:15:37.493Z,44285.80
2023-01-03T20:16:40.286Z,43920.88
2023-01-03T20:17:43.321Z,43864.89
2023-01-03T20:18:46.095Z,43486.02
2023-01-03T20:19:48.778Z,43428.04
2023-01-03T20:20:51.740Z,43332.08
2023-01-03T20:21:54.405Z,43167.15
2023-01-03T20:23:06.713Z,43232.12
2023-01-03T20:24:01.728Z,43192.14
2023-01-03T20:25:04.263Z,43280.10
2023-01-03T20:26:07.540Z,42975.24
2023-01-03T20:27:10.429Z,42928.27
2023-01-03T20:28:13.187Z,42762.35
2023-01-03T20:29:15.959Z,42743.36
2023-01-03T20:30:18.742Z,42657.41
2023-01-03T20:31:22.144Z,42564.47
2023-01-03T20:32:24.858Z,42562.47
2023-01-03T20:33:27.718Z,42608.44
2023-01-03T20:34:30.955Z,42911.27
2023-01-03T20:36:38.246Z,42583.46
2023-01-03T20:37:41.964Z,42432.55
2023-01-03T20:38:45.352Z,42200.71
2023-01-03T20:39:48.293Z,42191.71
2023-01-03T20:40:51.594Z,41662.12
2023-01-03T20:41:59.916Z,41737.05
2023-01-03T20:42:59.608Z,41463.29
2023-01-03T20:44:02.370Z,41709.08
2023-01-03T20:45:05.180Z,41675.11
2023-01-03T20:46:08.194Z,41732.06
2023-01-03T20:47:11.426Z,42004.85
2023-01-03T20:48:18.002Z,45770.84
2023-01-03T20:49:18.583Z,46107.92
2023-01-03T20:50:21.453Z,46720.14
2023-01-03T20:51:24.647Z,47325.46
2023-01-03T20:52:27.910Z,48016.94
2023-01-03T20:53:31.315Z,48607.45
2023-01-03T20:54:34.650Z,49492.36
2023-01-03T20:55:37.785Z,50351.45
2023-01-03T20:56:40.653Z,51370.97
2023-01-03T20:57:44.233Z,52132.28
2023-01-03T20:58:47.200Z,52922.80
2023-01-03T20:59:50.185Z,53695.43
2023-01-03T21:00:58.136Z,53841.75
2023-01-03T21:01:57.678Z,53559.13
2023-01-03T21:03:01.029Z,53162.29
2023-01-03T21:04:03.987Z,52597.15
2023-01-03T21:06:23.610Z,52496.96
2023-01-03T21:07:26.688Z,52734.42
2023-01-03T21:08:29.800Z,52921.79
2023-01-03T21:09:33.061Z,52335.66
2023-01-03T21:10:36.033Z,52554.07
2023-01-03T21:11:38.901Z,52868.69
2023-01-03T21:12:42.307Z,52765.48
2023-01-03T21:13:45.263Z,52595.15
2023-01-03T21:14:48.244Z,52633.22
2023-01-03T21:15:51.079Z,52157.33
2023-01-03T21:16:53.854Z,51466.13
2023-01-03T21:19:14.185Z,50845.15
2023-01-03T21:20:16.948Z,50868.19
2023-01-03T21:21:19.971Z,50484.63
2023-01-03T21:22:23.112Z,50280.35
2023-01-03T21:23:26.086Z,50380.48
2023-01-03T21:24:29.211Z,50615.82
2023-01-03T21:25:31.931Z,50869.19
2023-01-03T21:26:34.721Z,51338.92
2023-01-03T21:28:53.477Z,52843.64
2023-01-03T21:29:56.354Z,54009.14
2023-01-03T21:31:04.816Z,53112.18
2023-01-03T21:32:03.509Z,52486.94
2023-01-03T21:33:06.412Z,52230.46
2023-01-03T21:34:08.967Z,52488.95
2023-01-03T21:35:12.044Z,52845.64
2023-01-03T21:36:21.090Z,52935.82
2023-01-03T21:37:19.440Z,53198.36
2023-01-03T21:38:22.413Z,53299.57
2023-01-03T21:39:25.505Z,53344.67
2023-01-03T21:40:28.575Z,53017.99
2023-01-03T21:41:31.553Z,52397.77
2023-01-03T21:43:51.015Z,52538.04
2023-01-03T21:44:53.786Z,52929.81
2023-01-03T21:45:56.734Z,52944.84
2023-01-03T21:46:59.454Z,52589.14
2023-01-03T21:48:02.207Z,51851.78
2023-01-03T21:49:04.980Z,51951.96
2023-01-03T21:50:07.656Z,52715.38
2023-01-03T21:52:24.018Z,53861.80
2023-01-03T21:53:26.725Z,54034.19
2023-01-03T21:54:29.402Z,53908.91
2023-01-03T21:55:31.984Z,53734.52
2023-01-03T21:56:34.852Z,53018.99
2023-01-03T21:58:54.010Z,53185.34
2023-01-03T21:59:57.208Z,53614.25
2023-01-03T22:01:00.375Z,53922.94
2023-01-03T22:02:03.602Z,54192.56
2023-01-03T22:03:06.765Z,54974.46
2023-01-03T22:04:09.800Z,55900.92
2023-01-03T22:05:12.702Z,56234.86
2023-01-03T22:06:15.753Z,56237.86
2023-01-03T22:07:18.455Z,56857.68
2023-01-03T22:09:35.749Z,57682.25
2023-01-03T22:10:38.735Z,58930.45
2023-01-03T22:11:41.387Z,59634.00
2023-01-03T22:12:44.269Z,60187.08
2023-01-03T22:13:47.351Z,59669.12
2023-01-03T22:14:50.119Z,60007.40
2023-01-03T22:15:52.905Z,60878.80
2023-01-03T22:16:55.815Z,62652.32
2023-01-03T22:18:14.111Z,61510.39
2023-01-03T22:19:16.976Z,60964.14
2023-01-03T22:20:19.860Z,62752.77
2023-01-03T22:21:22.724Z,65145.21
2023-01-03T22:22:25.700Z,67629.61
2023-01-03T22:23:28.368Z,69164.66
2023-01-03T22:24:31.264Z,72094.56
2023-01-03T22:25:33.881Z,73210.31
2023-01-03T22:26:37.007Z,73162.98
2023-01-03T22:27:40.216Z,72693.69
2023-01-03T22:28:43.274Z,72812.52
2023-01-03T22:29:46.146Z,73687.73
2023-01-03T22:31:56.824Z,78265.33
2023-01-03T22:34:15.658Z,75530.44
2023-01-03T22:35:19.892Z,75314.79
2023-01-03T22:36:22.758Z,70319.86
2023-01-03T22:37:25.628Z,67589.38
2023-01-03T22:38:28.394Z,66216.80
2023-01-03T22:39:32.705Z,66343.48
2023-01-03T22:40:35.667Z,67595.42
2023-01-03T22:41:38.968Z,67092.59
2023-01-03T22:42:41.938Z,67230.36
2023-01-03T22:43:45.080Z,68604.29
2023-01-03T22:44:48.027Z,70422.52
2023-01-03T22:53:21.945Z,61978.37
2023-01-03T22:54:24.817Z,60549.49
2023-01-03T22:55:32.075Z,60689.04
2023-01-03T22:56:31.903Z,60339.67
2023-01-03T22:57:34.588Z,60122.84
2023-01-03T22:58:37.452Z,60165.00
2023-01-03T22:59:40.119Z,60415.97
2023-01-03T23:00:42.797Z,60189.09
2023-01-03T23:01:45.460Z,61300.52
2023-01-03T23:02:48.203Z,61712.23
2023-01-03T23:03:51.051Z,62031.60
2023-01-03T23:04:53.863Z,62440.38
2023-01-03T23:05:56.536Z,64528.12
2023-01-03T23:06:59.429Z,65043.70
2023-01-03T23:08:02.077Z,65967.48
2023-01-03T23:09:04.950Z,65870.97
2023-01-03T23:10:07.933Z,66574.73
2023-01-03T23:11:10.715Z,69169.69
2023-01-03T23:13:16.358Z,75741.06
2023-01-03T23:14:19.171Z,78809.91
2023-01-03T23:15:21.805Z,81324.02
2023-01-03T23:16:24.521Z,84658.73
2023-01-03T23:17:27.276Z,86975.37
2023-01-03T23:18:29.907Z,89511.77
2023-01-03T23:19:32.879Z,88137.73
2023-01-03T23:20:35.601Z,88722.07
2023-01-03T23:21:38.332Z,90838.73
2023-01-03T23:22:41.171Z,93092.14
2023-01-03T23:23:44.007Z,90443.23
2023-01-03T23:24:46.776Z,90831.66
2023-01-03T23:25:49.309Z,93116.42
2023-01-03T23:26:52.207Z,94540.76
2023-01-03T23:27:54.762Z,98602.92
2023-01-03T23:28:57.367Z,96993.78
2023-01-03T23:30:00.218Z,96591.59
2023-01-03T23:31:03.056Z,97490.23
2023-01-03T23:32:05.634Z,95682.01
2023-01-03T23:33:08.235Z,94698.72
2023-01-03T23:34:11.085Z,96014.22
2023-01-03T23:35:13.870Z,95925.09
2023-01-03T23:36:16.537Z,98612.05
2023-01-03T23:37:19.271Z,101724.73
2023-01-03T23:38:21.977Z,104553.59
2023-01-03T23:39:24.740Z,110915.53
2023-01-03T23:40:27.708Z,115028.70
2023-01-03T23:41:30.483Z,116943.30
2023-01-03T23:42:33.259Z,116943.30
2023-01-03T23:43:35.824Z,116943.30
2023-01-03T23:44:38.304Z,116943.30
2023-01-03T23:45:40.982Z,116943.30
2023-01-03T23:46:43.527Z,116943.30
2023-01-03T23:47:46.296Z,116943.30
2023-01-03T23:48:48.973Z,116943.30
2023-01-03T23:49:51.649Z,116943.30
2023-01-03T23:50:54.624Z,116943.30
2023-01-03T23:51:57.382Z,116943.30
2023-01-03T23:53:00.204Z,116943.30
2023-01-03T23:54:02.839Z,116943.30
2023-01-03T23:55:12.110Z,116943.30
2023-01-03T23:56:09.811Z,116943.30
2023-01-03T23:57:12.501Z,116943.30
2023-01-03T23:58:15.058Z,116943.30
2023-01-03T23:59:17.821Z,116943.30
